Chicopee, MA

7:39 PM EDT on October 20, 2014 (GMT -0400)
Westover Air Reserve Base / Metropolitan Airport | Change Station
CLOSE
Current Station
Airport
Location: Chicopee,
Elevation: 246 ft
Nearby Weather Stations

Elev 246 ft 42.19 °N, 72.53 °W | Updated 41 minutes ago

Mostly Cloudy
Mostly Cloudy
49 °F
Feels Like 49 °F
N
5
Wind Variable Wind from SSE

Today
High -- | Low -- °F
--% Chance of Precip.
Yesterday
High -- | Low -- °F
Precip. -- in
7:08 AM 6:00 PM
Waning Crescent, 8% visible
Pressure 29.99 in
Visibility 10.0 miles
Clouds Scattered Clouds 13000 ft
Dew Point 37 °F
Humidity 64%
Rainfall 0.00 in
Snow Depth Not available.
UV 0 out of 12
Pollen .90 out of 12
PM2.5 Good
Flu Activity No Activity
METAR KCEF 202258Z AUTO 16004KT 10SM SCT130 10/03 A2997 RMK AO2 SLP156 T00960030

More Conditions Fewer Conditions

Pressure 29.99 in
Visibility 10.0 miles
Clouds Scattered Clouds 13000 ft
Dew Point 37 °F
Humidity 64%
Rainfall 0.00 in
Snow Depth Not available.
UV 0 out of 12
Pollen .90 out of 12
PM2.5 Good
Flu Activity No Activity
METAR KCEF 202258Z AUTO 16004KT 10SM SCT130 10/03 A2997 RMK AO2 SLP156 T00960030

More Conditions Fewer Conditions

10-Day Weather Forecast

Almanac

Astronomy

Oct. 20, 2014 Rise Set
Actual Time 7:08 AM EDT 6:00 PM EDT
Civil Twilight 6:40 AM EDT 6:28 PM EDT
Nautical Twilight 6:07 AM EDT 7:01 PM EDT
Astronomical Twilight 5:35 AM EDT 7:33 PM EDT
Moon 3:50 AM EDT 4:24 PM EDT
Length of Visible Light 11h 48m
Length of Day
10h 51m
Tomorrow will be 2m 41s shorter.
Waning Crescent, 8% of the Moon is Illuminated
Today
Waning Crescent
Oct 23
New
Oct 30
First Quarter
Nov 6
Full
Nov 14
Last Quarter

Today's Extremes

State Highs State Lows

Community

WunderPhotos

Upload Photos

1,763,546 photos uploaded!

WunderBlogs® & News

By Dr. Jeff Masters
Director of Meteorology, Weather Underground
By Kari Strenfel
Meteorologist, Weather Underground
By Christopher C. Burt
Weather Historian, Weather Underground
October 20, 2014
October 20, 2014
October 20, 2014

Nearby

Air Quality

  Air Quality AQ Index Pollutant
Yesterday Good
OZONE
Yesterday Good
PM2.5
Current Good
PM2.5
Monday Good
PM2.5
Monday Good
OZONE
Tuesday Good
PM2.5
Wednesday Good
PM2.5
Thursday Good
PM2.5

Snow Depth

Station Depth Elevation
No new snow has been reported.

Earthquake Activity

City Distance Mag. Time & Date
No recent earthquake activity has been reported nearby.
Minimum magnitude displayed is 2.5.

Coastal Water Temperatures

Place Temperature
No Stations Reporting

Nearby Weather Stations